sensor_id;sensor_type;location;lat;lon;timestamp;P1;durP1;ratioP1;P2;durP2;ratioP2
10275;SDS011;5183;51.190;6.820;2023-04-03T00:01:26;11.70;;;10.50;;
10275;SDS011;5183;51.190;6.820;2023-04-03T00:03:53;12.37;;;10.53;;
10275;SDS011;5183;51.190;6.820;2023-04-03T00:06:20;11.73;;;10.47;;
10275;SDS011;5183;51.190;6.820;2023-04-03T00:08:48;11.17;;;10.10;;
10275;SDS011;5183;51.190;6.820;2023-04-03T00:11:16;12.73;;;10.33;;
10275;SDS011;5183;51.190;6.820;2023-04-03T00:13:44;11.93;;;10.73;;
10275;SDS011;5183;51.190;6.820;2023-04-03T00:16:11;11.33;;;10.13;;
10275;SDS011;5183;51.190;6.820;2023-04-03T00:18:38;11.73;;;10.30;;
10275;SDS011;5183;51.190;6.820;2023-04-03T00:21:06;11.90;;;10.70;;
10275;SDS011;5183;51.190;6.820;2023-04-03T00:23:34;10.97;;;9.90;;
10275;SDS011;5183;51.190;6.820;2023-04-03T00:26:01;11.70;;;10.53;;
10275;SDS011;5183;51.190;6.820;2023-04-03T00:28:29;11.83;;;10.60;;
10275;SDS011;5183;51.190;6.820;2023-04-03T00:30:56;12.13;;;10.87;;
10275;SDS011;5183;51.190;6.820;2023-04-03T00:33:23;11.90;;;10.67;;
10275;SDS011;5183;51.190;6.820;2023-04-03T00:35:50;11.70;;;10.50;;
10275;SDS011;5183;51.190;6.820;2023-04-03T00:38:17;12.43;;;10.40;;
10275;SDS011;5183;51.190;6.820;2023-04-03T00:40:44;11.60;;;10.50;;
10275;SDS011;5183;51.190;6.820;2023-04-03T00:43:14;11.83;;;10.63;;
10275;SDS011;5183;51.190;6.820;2023-04-03T00:45:44;12.43;;;11.13;;
10275;SDS011;5183;51.190;6.820;2023-04-03T00:48:12;11.97;;;10.27;;
10275;SDS011;5183;51.190;6.820;2023-04-03T00:50:43;11.47;;;10.27;;
10275;SDS011;5183;51.190;6.820;2023-04-03T00:53:11;12.63;;;11.27;;
10275;SDS011;5183;51.190;6.820;2023-04-03T00:55:40;12.77;;;10.90;;
10275;SDS011;5183;51.190;6.820;2023-04-03T00:58:08;11.60;;;10.40;;
10275;SDS011;5183;51.190;6.820;2023-04-03T01:00:38;12.00;;;10.80;;
10275;SDS011;5183;51.190;6.820;2023-04-03T01:03:09;12.23;;;11.13;;
10275;SDS011;5183;51.190;6.820;2023-04-03T01:05:36;12.17;;;10.97;;
10275;SDS011;5183;51.190;6.820;2023-04-03T01:08:03;12.70;;;10.93;;
10275;SDS011;5183;51.190;6.820;2023-04-03T01:10:31;11.70;;;10.47;;
10275;SDS011;5183;51.190;6.820;2023-04-03T01:12:58;12.60;;;11.40;;
10275;SDS011;5183;51.190;6.820;2023-04-03T01:15:26;12.90;;;11.63;;
10275;SDS011;5183;51.190;6.820;2023-04-03T01:17:56;13.40;;;11.70;;
10275;SDS011;5183;51.190;6.820;2023-04-03T01:23:32;13.73;;;12.33;;
10275;SDS011;5183;51.190;6.820;2023-04-03T01:26:14;13.70;;;12.20;;
10275;SDS011;5183;51.190;6.820;2023-04-03T01:28:42;14.00;;;12.50;;
10275;SDS011;5183;51.190;6.820;2023-04-03T01:31:11;12.97;;;11.57;;
10275;SDS011;5183;51.190;6.820;2023-04-03T01:33:45;14.23;;;12.47;;
10275;SDS011;5183;51.190;6.820;2023-04-03T01:36:13;13.80;;;12.40;;
10275;SDS011;5183;51.190;6.820;2023-04-03T01:38:41;13.57;;;12.13;;
10275;SDS011;5183;51.190;6.820;2023-04-03T01:41:08;13.27;;;11.97;;
10275;SDS011;5183;51.190;6.820;2023-04-03T01:43:35;13.63;;;11.87;;
10275;SDS011;5183;51.190;6.820;2023-04-03T01:46:02;13.50;;;12.10;;
10275;SDS011;5183;51.190;6.820;2023-04-03T01:48:29;14.13;;;12.73;;
10275;SDS011;5183;51.190;6.820;2023-04-03T01:50:57;14.07;;;12.47;;
10275;SDS011;5183;51.190;6.820;2023-04-03T01:53:24;17.37;;;12.97;;
10275;SDS011;5183;51.190;6.820;2023-04-03T01:55:51;13.33;;;12.00;;
10275;SDS011;5183;51.190;6.820;2023-04-03T01:58:18;13.67;;;11.97;;
10275;SDS011;5183;51.190;6.820;2023-04-03T02:00:45;13.93;;;11.83;;
10275;SDS011;5183;51.190;6.820;2023-04-03T02:03:11;12.50;;;11.20;;
10275;SDS011;5183;51.190;6.820;2023-04-03T02:05:38;13.10;;;11.63;;
10275;SDS011;5183;51.190;6.820;2023-04-03T02:08:06;12.57;;;11.27;;
10275;SDS011;5183;51.190;6.820;2023-04-03T02:10:33;11.83;;;10.63;;
10275;SDS011;5183;51.190;6.820;2023-04-03T02:13:00;12.47;;;10.70;;
10275;SDS011;5183;51.190;6.820;2023-04-03T02:15:27;11.53;;;9.63;;
10275;SDS011;5183;51.190;6.820;2023-04-03T02:17:54;14.93;;;11.90;;
10275;SDS011;5183;51.190;6.820;2023-04-03T02:20:20;15.73;;;12.20;;
10275;SDS011;5183;51.190;6.820;2023-04-03T02:22:48;11.30;;;10.20;;
10275;SDS011;5183;51.190;6.820;2023-04-03T02:25:16;13.30;;;10.70;;
10275;SDS011;5183;51.190;6.820;2023-04-03T02:27:43;11.20;;;9.47;;
10275;SDS011;5183;51.190;6.820;2023-04-03T02:30:10;11.43;;;9.43;;
10275;SDS011;5183;51.190;6.820;2023-04-03T02:32:39;10.23;;;8.97;;
10275;SDS011;5183;51.190;6.820;2023-04-03T02:35:07;12.77;;;9.47;;
10275;SDS011;5183;51.190;6.820;2023-04-03T02:37:34;12.10;;;9.13;;
10275;SDS011;5183;51.190;6.820;2023-04-03T02:40:01;11.63;;;9.43;;
10275;SDS011;5183;51.190;6.820;2023-04-03T02:42:30;10.57;;;9.40;;
10275;SDS011;5183;51.190;6.820;2023-04-03T02:44:57;9.13;;;8.17;;
10275;SDS011;5183;51.190;6.820;2023-04-03T02:47:25;10.90;;;8.53;;
10275;SDS011;5183;51.190;6.820;2023-04-03T02:49:52;9.80;;;8.80;;
10275;SDS011;5183;51.190;6.820;2023-04-03T02:52:19;9.67;;;8.27;;
10275;SDS011;5183;51.190;6.820;2023-04-03T02:54:46;9.13;;;8.23;;
10275;SDS011;5183;51.190;6.820;2023-04-03T02:57:13;11.03;;;8.17;;
10275;SDS011;5183;51.190;6.820;2023-04-03T02:59:41;9.73;;;8.40;;
10275;SDS011;5183;51.190;6.820;2023-04-03T03:02:09;13.27;;;9.00;;
10275;SDS011;5183;51.190;6.820;2023-04-03T03:04:36;11.40;;;8.63;;
10275;SDS011;5183;51.190;6.820;2023-04-03T03:07:03;10.63;;;8.13;;
10275;SDS011;5183;51.190;6.820;2023-04-03T03:09:30;10.20;;;9.17;;
10275;SDS011;5183;51.190;6.820;2023-04-03T03:11:56;10.93;;;8.50;;
10275;SDS011;5183;51.190;6.820;2023-04-03T03:14:23;10.10;;;7.97;;
10275;SDS011;5183;51.190;6.820;2023-04-03T03:16:51;11.67;;;9.77;;
10275;SDS011;5183;51.190;6.820;2023-04-03T03:19:18;12.20;;;9.33;;
10275;SDS011;5183;51.190;6.820;2023-04-03T03:21:45;12.87;;;9.43;;
10275;SDS011;5183;51.190;6.820;2023-04-03T03:24:12;12.07;;;8.73;;
10275;SDS011;5183;51.190;6.820;2023-04-03T03:26:40;9.93;;;8.13;;
10275;SDS011;5183;51.190;6.820;2023-04-03T03:29:07;12.00;;;8.70;;
10275;SDS011;5183;51.190;6.820;2023-04-03T03:31:34;10.17;;;8.17;;
10275;SDS011;5183;51.190;6.820;2023-04-03T03:34:02;13.97;;;10.27;;
10275;SDS011;5183;51.190;6.820;2023-04-03T03:36:29;9.73;;;8.57;;
10275;SDS011;5183;51.190;6.820;2023-04-03T03:38:56;14.73;;;10.10;;
10275;SDS011;5183;51.190;6.820;2023-04-03T03:41:23;12.03;;;9.80;;
10275;SDS011;5183;51.190;6.820;2023-04-03T03:43:50;11.27;;;9.33;;
10275;SDS011;5183;51.190;6.820;2023-04-03T03:46:17;10.30;;;8.50;;
10275;SDS011;5183;51.190;6.820;2023-04-03T03:48:44;12.50;;;8.90;;
10275;SDS011;5183;51.190;6.820;2023-04-03T03:51:12;10.57;;;8.00;;
10275;SDS011;5183;51.190;6.820;2023-04-03T03:53:39;10.27;;;7.67;;
10275;SDS011;5183;51.190;6.820;2023-04-03T03:56:06;10.73;;;8.10;;
10275;SDS011;5183;51.190;6.820;2023-04-03T03:58:33;9.73;;;7.40;;
10275;SDS011;5183;51.190;6.820;2023-04-03T04:01:00;8.30;;;7.37;;
10275;SDS011;5183;51.190;6.820;2023-04-03T04:03:28;9.60;;;7.90;;
10275;SDS011;5183;51.190;6.820;2023-04-03T04:05:54;9.23;;;7.80;;
10275;SDS011;5183;51.190;6.820;2023-04-03T04:08:23;8.80;;;6.80;;
10275;SDS011;5183;51.190;6.820;2023-04-03T04:10:50;8.67;;;6.90;;
10275;SDS011;5183;51.190;6.820;2023-04-03T04:13:17;8.83;;;6.67;;
10275;SDS011;5183;51.190;6.820;2023-04-03T04:15:44;10.57;;;7.47;;
10275;SDS011;5183;51.190;6.820;2023-04-03T04:18:10;7.07;;;6.23;;
10275;SDS011;5183;51.190;6.820;2023-04-03T04:20:37;10.97;;;6.90;;
10275;SDS011;5183;51.190;6.820;2023-04-03T04:23:04;8.90;;;6.40;;
10275;SDS011;5183;51.190;6.820;2023-04-03T04:25:32;8.80;;;6.70;;
10275;SDS011;5183;51.190;6.820;2023-04-03T04:27:59;10.20;;;7.03;;
10275;SDS011;5183;51.190;6.820;2023-04-03T04:30:26;9.73;;;6.70;;
10275;SDS011;5183;51.190;6.820;2023-04-03T04:32:53;9.07;;;6.53;;
10275;SDS011;5183;51.190;6.820;2023-04-03T04:35:20;9.60;;;6.53;;
10275;SDS011;5183;51.190;6.820;2023-04-03T04:37:50;8.60;;;6.57;;
10275;SDS011;5183;51.190;6.820;2023-04-03T04:40:17;10.40;;;6.77;;
10275;SDS011;5183;51.190;6.820;2023-04-03T04:42:45;9.53;;;6.00;;
10275;SDS011;5183;51.190;6.820;2023-04-03T04:45:12;7.80;;;6.40;;
10275;SDS011;5183;51.190;6.820;2023-04-03T04:47:40;8.60;;;6.30;;
10275;SDS011;5183;51.190;6.820;2023-04-03T04:50:07;9.47;;;6.87;;
10275;SDS011;5183;51.190;6.820;2023-04-03T04:52:34;8.10;;;6.70;;
10275;SDS011;5183;51.190;6.820;2023-04-03T04:55:01;10.67;;;7.00;;
10275;SDS011;5183;51.190;6.820;2023-04-03T04:57:28;9.70;;;6.10;;
10275;SDS011;5183;51.190;6.820;2023-04-03T04:59:57;8.43;;;5.80;;
10275;SDS011;5183;51.190;6.820;2023-04-03T05:02:23;7.73;;;6.30;;
10275;SDS011;5183;51.190;6.820;2023-04-03T05:04:50;8.90;;;5.97;;
10275;SDS011;5183;51.190;6.820;2023-04-03T05:07:17;10.57;;;6.57;;
10275;SDS011;5183;51.190;6.820;2023-04-03T05:09:44;8.57;;;6.23;;
10275;SDS011;5183;51.190;6.820;2023-04-03T05:12:11;8.13;;;5.50;;
10275;SDS011;5183;51.190;6.820;2023-04-03T05:14:38;7.97;;;5.50;;
10275;SDS011;5183;51.190;6.820;2023-04-03T05:17:06;8.40;;;5.33;;
10275;SDS011;5183;51.190;6.820;2023-04-03T05:19:32;7.67;;;5.63;;
10275;SDS011;5183;51.190;6.820;2023-04-03T05:21:59;9.13;;;6.20;;
10275;SDS011;5183;51.190;6.820;2023-04-03T05:24:26;8.90;;;5.67;;
10275;SDS011;5183;51.190;6.820;2023-04-03T05:26:53;6.53;;;5.87;;
10275;SDS011;5183;51.190;6.820;2023-04-03T05:29:20;8.73;;;5.07;;
10275;SDS011;5183;51.190;6.820;2023-04-03T05:31:48;7.00;;;4.97;;
10275;SDS011;5183;51.190;6.820;2023-04-03T05:34:16;8.33;;;5.60;;
10275;SDS011;5183;51.190;6.820;2023-04-03T05:36:43;8.17;;;5.37;;
10275;SDS011;5183;51.190;6.820;2023-04-03T05:39:10;10.03;;;5.53;;
10275;SDS011;5183;51.190;6.820;2023-04-03T05:41:37;7.00;;;5.40;;
10275;SDS011;5183;51.190;6.820;2023-04-03T05:44:04;7.70;;;5.43;;
10275;SDS011;5183;51.190;6.820;2023-04-03T05:46:30;10.80;;;5.63;;
10275;SDS011;5183;51.190;6.820;2023-04-03T05:48:58;6.70;;;5.50;;
10275;SDS011;5183;51.190;6.820;2023-04-03T05:51:28;7.60;;;5.50;;
10275;SDS011;5183;51.190;6.820;2023-04-03T05:54:00;9.33;;;5.10;;
10275;SDS011;5183;51.190;6.820;2023-04-03T05:56:33;8.03;;;5.40;;
10275;SDS011;5183;51.190;6.820;2023-04-03T05:58:59;8.37;;;5.53;;
10275;SDS011;5183;51.190;6.820;2023-04-03T06:01:26;7.67;;;5.40;;
10275;SDS011;5183;51.190;6.820;2023-04-03T06:03:53;7.80;;;5.00;;
10275;SDS011;5183;51.190;6.820;2023-04-03T06:06:20;6.40;;;4.70;;
10275;SDS011;5183;51.190;6.820;2023-04-03T06:08:49;7.43;;;5.40;;
10275;SDS011;5183;51.190;6.820;2023-04-03T06:11:16;8.73;;;5.27;;
10275;SDS011;5183;51.190;6.820;2023-04-03T06:13:43;8.87;;;4.87;;
10275;SDS011;5183;51.190;6.820;2023-04-03T06:16:10;7.90;;;4.90;;
10275;SDS011;5183;51.190;6.820;2023-04-03T06:18:40;7.57;;;5.20;;
10275;SDS011;5183;51.190;6.820;2023-04-03T06:21:07;10.33;;;6.20;;
10275;SDS011;5183;51.190;6.820;2023-04-03T06:23:34;8.05;;;5.15;;
10275;SDS011;5183;51.190;6.820;2023-04-03T06:26:02;7.80;;;5.38;;
10275;SDS011;5183;51.190;6.820;2023-04-03T06:28:29;7.23;;;4.97;;
10275;SDS011;5183;51.190;6.820;2023-04-03T06:30:56;5.97;;;4.77;;
10275;SDS011;5183;51.190;6.820;2023-04-03T06:33:22;7.40;;;4.13;;
10275;SDS011;5183;51.190;6.820;2023-04-03T06:35:49;8.87;;;4.37;;
10275;SDS011;5183;51.190;6.820;2023-04-03T06:38:21;6.77;;;4.87;;
10275;SDS011;5183;51.190;6.820;2023-04-03T06:40:48;5.63;;;4.40;;
10275;SDS011;5183;51.190;6.820;2023-04-03T06:43:18;7.70;;;5.23;;
10275;SDS011;5183;51.190;6.820;2023-04-03T06:45:45;8.17;;;4.47;;
10275;SDS011;5183;51.190;6.820;2023-04-03T06:48:12;8.97;;;4.67;;
10275;SDS011;5183;51.190;6.820;2023-04-03T06:50:39;10.27;;;5.03;;
10275;SDS011;5183;51.190;6.820;2023-04-03T06:53:06;8.00;;;4.63;;
10275;SDS011;5183;51.190;6.820;2023-04-03T06:55:33;7.20;;;4.37;;
10275;SDS011;5183;51.190;6.820;2023-04-03T06:58:00;6.73;;;4.77;;
10275;SDS011;5183;51.190;6.820;2023-04-03T07:00:29;9.33;;;4.27;;
10275;SDS011;5183;51.190;6.820;2023-04-03T07:02:56;8.27;;;4.73;;
10275;SDS011;5183;51.190;6.820;2023-04-03T07:05:23;10.20;;;4.60;;
10275;SDS011;5183;51.190;6.820;2023-04-03T07:07:51;10.33;;;4.70;;
10275;SDS011;5183;51.190;6.820;2023-04-03T07:10:18;6.80;;;4.10;;
10275;SDS011;5183;51.190;6.820;2023-04-03T07:12:45;6.23;;;4.03;;
10275;SDS011;5183;51.190;6.820;2023-04-03T07:15:11;8.27;;;4.50;;
10275;SDS011;5183;51.190;6.820;2023-04-03T07:17:40;7.97;;;4.40;;
10275;SDS011;5183;51.190;6.820;2023-04-03T07:20:08;8.60;;;3.77;;
10275;SDS011;5183;51.190;6.820;2023-04-03T07:22:35;10.43;;;4.70;;
10275;SDS011;5183;51.190;6.820;2023-04-03T07:25:02;8.07;;;4.20;;
10275;SDS011;5183;51.190;6.820;2023-04-03T07:27:32;7.60;;;4.13;;
10275;SDS011;5183;51.190;6.820;2023-04-03T07:29:59;6.53;;;3.80;;
10275;SDS011;5183;51.190;6.820;2023-04-03T07:32:26;6.70;;;4.20;;
10275;SDS011;5183;51.190;6.820;2023-04-03T07:34:54;7.07;;;4.05;;
10275;SDS011;5183;51.190;6.820;2023-04-03T07:37:21;9.87;;;4.37;;
10275;SDS011;5183;51.190;6.820;2023-04-03T07:39:47;8.70;;;3.77;;
10275;SDS011;5183;51.190;6.820;2023-04-03T07:42:14;8.40;;;3.90;;
10275;SDS011;5183;51.190;6.820;2023-04-03T07:44:41;5.70;;;3.67;;
10275;SDS011;5183;51.190;6.820;2023-04-03T07:47:08;6.57;;;3.30;;
10275;SDS011;5183;51.190;6.820;2023-04-03T07:49:35;8.40;;;3.73;;
10275;SDS011;5183;51.190;6.820;2023-04-03T07:52:06;7.10;;;3.47;;
10275;SDS011;5183;51.190;6.820;2023-04-03T07:54:34;6.07;;;3.53;;
10275;SDS011;5183;51.190;6.820;2023-04-03T07:57:01;4.90;;;3.17;;
10275;SDS011;5183;51.190;6.820;2023-04-03T07:59:27;8.43;;;3.10;;
10275;SDS011;5183;51.190;6.820;2023-04-03T08:01:55;7.50;;;3.43;;
10275;SDS011;5183;51.190;6.820;2023-04-03T08:04:22;5.57;;;3.20;;
10275;SDS011;5183;51.190;6.820;2023-04-03T08:06:48;5.50;;;3.27;;
10275;SDS011;5183;51.190;6.820;2023-04-03T08:09:17;6.23;;;3.23;;
10275;SDS011;5183;51.190;6.820;2023-04-03T08:11:44;6.53;;;3.43;;
10275;SDS011;5183;51.190;6.820;2023-04-03T08:14:11;5.80;;;3.07;;
10275;SDS011;5183;51.190;6.820;2023-04-03T08:16:41;3.73;;;2.93;;
10275;SDS011;5183;51.190;6.820;2023-04-03T08:19:09;5.10;;;3.00;;
10275;SDS011;5183;51.190;6.820;2023-04-03T08:21:38;7.37;;;2.73;;
10275;SDS011;5183;51.190;6.820;2023-04-03T08:24:06;7.67;;;2.97;;
10275;SDS011;5183;51.190;6.820;2023-04-03T08:26:35;4.30;;;2.57;;
10275;SDS011;5183;51.190;6.820;2023-04-03T08:29:02;4.10;;;2.40;;
10275;SDS011;5183;51.190;6.820;2023-04-03T08:31:29;5.80;;;2.47;;
10275;SDS011;5183;51.190;6.820;2023-04-03T08:33:56;4.73;;;2.60;;
10275;SDS011;5183;51.190;6.820;2023-04-03T08:36:24;3.90;;;2.30;;
10275;SDS011;5183;51.190;6.820;2023-04-03T08:38:52;4.93;;;2.30;;
10275;SDS011;5183;51.190;6.820;2023-04-03T08:41:22;4.10;;;2.47;;
10275;SDS011;5183;51.190;6.820;2023-04-03T08:43:58;5.80;;;2.40;;
10275;SDS011;5183;51.190;6.820;2023-04-03T08:46:38;5.13;;;2.40;;
10275;SDS011;5183;51.190;6.820;2023-04-03T08:49:14;4.00;;;2.23;;
10275;SDS011;5183;51.190;6.820;2023-04-03T08:51:47;4.57;;;2.10;;
10275;SDS011;5183;51.190;6.820;2023-04-03T08:54:20;4.80;;;2.53;;
10275;SDS011;5183;51.190;6.820;2023-04-03T08:56:51;3.47;;;2.10;;
10275;SDS011;5183;51.190;6.820;2023-04-03T08:59:22;4.27;;;2.10;;
10275;SDS011;5183;51.190;6.820;2023-04-03T09:01:53;6.53;;;2.50;;
10275;SDS011;5183;51.190;6.820;2023-04-03T09:04:22;5.47;;;2.43;;
10275;SDS011;5183;51.190;6.820;2023-04-03T09:06:50;5.33;;;2.40;;
10275;SDS011;5183;51.190;6.820;2023-04-03T09:09:25;4.00;;;2.37;;
10275;SDS011;5183;51.190;6.820;2023-04-03T09:11:59;4.10;;;2.13;;
10275;SDS011;5183;51.190;6.820;2023-04-03T09:14:37;6.37;;;2.37;;
10275;SDS011;5183;51.190;6.820;2023-04-03T09:17:09;5.20;;;2.50;;
10275;SDS011;5183;51.190;6.820;2023-04-03T09:19:45;4.03;;;2.30;;
10275;SDS011;5183;51.190;6.820;2023-04-03T09:22:18;3.20;;;2.20;;
10275;SDS011;5183;51.190;6.820;2023-04-03T09:24:50;4.97;;;2.13;;
10275;SDS011;5183;51.190;6.820;2023-04-03T09:27:25;3.90;;;2.17;;
10275;SDS011;5183;51.190;6.820;2023-04-03T09:29:54;3.00;;;2.10;;
10275;SDS011;5183;51.190;6.820;2023-04-03T09:32:26;4.97;;;2.40;;
10275;SDS011;5183;51.190;6.820;2023-04-03T09:34:54;3.77;;;2.20;;
10275;SDS011;5183;51.190;6.820;2023-04-03T09:37:34;5.20;;;2.50;;
10275;SDS011;5183;51.190;6.820;2023-04-03T09:40:04;3.73;;;2.10;;
10275;SDS011;5183;51.190;6.820;2023-04-03T09:42:32;4.13;;;2.30;;
10275;SDS011;5183;51.190;6.820;2023-04-03T09:45:18;4.70;;;2.07;;
10275;SDS011;5183;51.190;6.820;2023-04-03T09:47:49;2.83;;;2.07;;
10275;SDS011;5183;51.190;6.820;2023-04-03T09:50:32;4.47;;;2.37;;
10275;SDS011;5183;51.190;6.820;2023-04-03T09:53:02;2.77;;;2.17;;
10275;SDS011;5183;51.190;6.820;2023-04-03T09:55:32;4.53;;;2.07;;
10275;SDS011;5183;51.190;6.820;2023-04-03T09:57:59;3.83;;;2.27;;
10275;SDS011;5183;51.190;6.820;2023-04-03T10:00:30;2.60;;;1.80;;
10275;SDS011;5183;51.190;6.820;2023-04-03T10:02:59;3.23;;;2.00;;
10275;SDS011;5183;51.190;6.820;2023-04-03T10:05:28;4.07;;;2.17;;
10275;SDS011;5183;51.190;6.820;2023-04-03T10:08:15;3.97;;;2.00;;
10275;SDS011;5183;51.190;6.820;2023-04-03T10:10:48;3.23;;;2.00;;
10275;SDS011;5183;51.190;6.820;2023-04-03T10:13:33;5.57;;;2.10;;
10275;SDS011;5183;51.190;6.820;2023-04-03T10:16:03;4.67;;;2.33;;
10275;SDS011;5183;51.190;6.820;2023-04-03T10:18:37;4.53;;;2.20;;
10275;SDS011;5183;51.190;6.820;2023-04-03T10:21:09;3.90;;;1.92;;
10275;SDS011;5183;51.190;6.820;2023-04-03T10:23:42;5.47;;;2.00;;
10275;SDS011;5183;51.190;6.820;2023-04-03T10:26:15;2.90;;;1.90;;
10275;SDS011;5183;51.190;6.820;2023-04-03T10:28:52;2.67;;;1.90;;
10275;SDS011;5183;51.190;6.820;2023-04-03T10:31:28;3.63;;;1.80;;
10275;SDS011;5183;51.190;6.820;2023-04-03T10:34:04;3.77;;;1.80;;
10275;SDS011;5183;51.190;6.820;2023-04-03T10:36:37;2.17;;;1.43;;
10275;SDS011;5183;51.190;6.820;2023-04-03T10:39:12;3.93;;;1.60;;
10275;SDS011;5183;51.190;6.820;2023-04-03T10:41:50;2.73;;;1.47;;
10275;SDS011;5183;51.190;6.820;2023-04-03T10:44:29;5.33;;;1.80;;
10275;SDS011;5183;51.190;6.820;2023-04-03T10:47:06;2.40;;;1.60;;
10275;SDS011;5183;51.190;6.820;2023-04-03T10:49:43;2.10;;;1.70;;
10275;SDS011;5183;51.190;6.820;2023-04-03T10:52:17;3.10;;;1.57;;
10275;SDS011;5183;51.190;6.820;2023-04-03T10:54:49;1.60;;;1.50;;
10275;SDS011;5183;51.190;6.820;2023-04-03T10:57:25;2.03;;;1.43;;
10275;SDS011;5183;51.190;6.820;2023-04-03T10:59:55;3.07;;;1.70;;
10275;SDS011;5183;51.190;6.820;2023-04-03T11:02:26;3.30;;;1.77;;
10275;SDS011;5183;51.190;6.820;2023-04-03T11:04:56;3.53;;;1.50;;
10275;SDS011;5183;51.190;6.820;2023-04-03T11:07:28;2.43;;;1.60;;
10275;SDS011;5183;51.190;6.820;2023-04-03T11:10:00;2.33;;;1.40;;
10275;SDS011;5183;51.190;6.820;2023-04-03T11:12:35;1.83;;;1.40;;
10275;SDS011;5183;51.190;6.820;2023-04-03T11:15:11;3.17;;;1.90;;
10275;SDS011;5183;51.190;6.820;2023-04-03T11:17:43;2.00;;;1.37;;
10275;SDS011;5183;51.190;6.820;2023-04-03T11:20:17;3.80;;;1.53;;
10275;SDS011;5183;51.190;6.820;2023-04-03T11:22:47;4.73;;;1.70;;
10275;SDS011;5183;51.190;6.820;2023-04-03T11:25:18;2.53;;;1.50;;
10275;SDS011;5183;51.190;6.820;2023-04-03T11:27:48;1.83;;;1.50;;
10275;SDS011;5183;51.190;6.820;2023-04-03T11:30:20;2.20;;;1.40;;
10275;SDS011;5183;51.190;6.820;2023-04-03T11:35:48;2.00;;;1.40;;
10275;SDS011;5183;51.190;6.820;2023-04-03T11:38:19;2.43;;;1.40;;
10275;SDS011;5183;51.190;6.820;2023-04-03T11:40:51;2.40;;;1.30;;
10275;SDS011;5183;51.190;6.820;2023-04-03T11:43:23;2.20;;;1.73;;
10275;SDS011;5183;51.190;6.820;2023-04-03T11:45:55;1.93;;;1.20;;
10275;SDS011;5183;51.190;6.820;2023-04-03T11:48:43;2.90;;;1.60;;
10275;SDS011;5183;51.190;6.820;2023-04-03T12:03:32;2.53;;;1.20;;
10275;SDS011;5183;51.190;6.820;2023-04-03T12:09:34;2.50;;;1.40;;
10275;SDS011;5183;51.190;6.820;2023-04-03T12:12:21;1.53;;;1.10;;
10275;SDS011;5183;51.190;6.820;2023-04-03T12:14:53;2.27;;;1.20;;
10275;SDS011;5183;51.190;6.820;2023-04-03T12:17:22;3.53;;;1.70;;
10275;SDS011;5183;51.190;6.820;2023-04-03T12:19:52;3.13;;;1.47;;
10275;SDS011;5183;51.190;6.820;2023-04-03T12:22:21;1.93;;;1.40;;
10275;SDS011;5183;51.190;6.820;2023-04-03T12:24:48;2.07;;;1.50;;
10275;SDS011;5183;51.190;6.820;2023-04-03T12:27:21;2.03;;;1.30;;
10275;SDS011;5183;51.190;6.820;2023-04-03T12:29:55;3.07;;;1.30;;
10275;SDS011;5183;51.190;6.820;2023-04-03T12:32:32;2.17;;;1.30;;
10275;SDS011;5183;51.190;6.820;2023-04-03T12:35:10;1.67;;;1.20;;
10275;SDS011;5183;51.190;6.820;2023-04-03T12:37:54;3.00;;;1.30;;
10275;SDS011;5183;51.190;6.820;2023-04-03T12:40:47;2.93;;;1.40;;
10275;SDS011;5183;51.190;6.820;2023-04-03T12:43:23;2.72;;;1.40;;
10275;SDS011;5183;51.190;6.820;2023-04-03T12:46:03;2.73;;;1.60;;
10275;SDS011;5183;51.190;6.820;2023-04-03T12:48:38;2.60;;;1.53;;
10275;SDS011;5183;51.190;6.820;2023-04-03T12:51:13;4.60;;;1.40;;
10275;SDS011;5183;51.190;6.820;2023-04-03T12:53:42;2.00;;;1.40;;
10275;SDS011;5183;51.190;6.820;2023-04-03T12:56:20;3.00;;;1.70;;
10275;SDS011;5183;51.190;6.820;2023-04-03T12:58:49;2.50;;;1.70;;
10275;SDS011;5183;51.190;6.820;2023-04-03T13:01:19;3.40;;;1.60;;
10275;SDS011;5183;51.190;6.820;2023-04-03T13:03:48;3.70;;;1.50;;
10275;SDS011;5183;51.190;6.820;2023-04-03T13:06:18;1.87;;;1.40;;
10275;SDS011;5183;51.190;6.820;2023-04-03T13:08:52;4.00;;;1.70;;
10275;SDS011;5183;51.190;6.820;2023-04-03T13:11:22;1.60;;;1.50;;
10275;SDS011;5183;51.190;6.820;2023-04-03T13:13:53;1.73;;;1.40;;
10275;SDS011;5183;51.190;6.820;2023-04-03T13:16:22;2.43;;;1.40;;
10275;SDS011;5183;51.190;6.820;2023-04-03T13:18:50;2.37;;;1.50;;
10275;SDS011;5183;51.190;6.820;2023-04-03T13:21:18;2.77;;;1.67;;
10275;SDS011;5183;51.190;6.820;2023-04-03T13:23:48;2.20;;;1.50;;
10275;SDS011;5183;51.190;6.820;2023-04-03T13:26:21;2.77;;;1.40;;
10275;SDS011;5183;51.190;6.820;2023-04-03T13:28:54;2.63;;;1.80;;
10275;SDS011;5183;51.190;6.820;2023-04-03T13:31:26;1.80;;;1.50;;
10275;SDS011;5183;51.190;6.820;2023-04-03T13:33:57;2.83;;;1.80;;
10275;SDS011;5183;51.190;6.820;2023-04-03T13:36:34;3.90;;;1.80;;
10275;SDS011;5183;51.190;6.820;2023-04-03T13:39:05;2.50;;;2.00;;
10275;SDS011;5183;51.190;6.820;2023-04-03T13:41:34;1.60;;;1.47;;
10275;SDS011;5183;51.190;6.820;2023-04-03T13:44:15;3.60;;;2.20;;
10275;SDS011;5183;51.190;6.820;2023-04-03T13:46:44;1.90;;;1.50;;
10275;SDS011;5183;51.190;6.820;2023-04-03T13:49:18;2.83;;;1.70;;
10275;SDS011;5183;51.190;6.820;2023-04-03T13:51:46;2.40;;;1.90;;
10275;SDS011;5183;51.190;6.820;2023-04-03T13:54:18;2.83;;;1.70;;
10275;SDS011;5183;51.190;6.820;2023-04-03T13:56:51;2.22;;;1.55;;
10275;SDS011;5183;51.190;6.820;2023-04-03T13:59:22;3.23;;;1.73;;
10275;SDS011;5183;51.190;6.820;2023-04-03T14:01:52;3.07;;;1.60;;
10275;SDS011;5183;51.190;6.820;2023-04-03T14:04:21;4.13;;;2.07;;
10275;SDS011;5183;51.190;6.820;2023-04-03T14:06:50;2.87;;;2.20;;
10275;SDS011;5183;51.190;6.820;2023-04-03T14:09:19;4.57;;;2.53;;
10275;SDS011;5183;51.190;6.820;2023-04-03T14:11:48;3.23;;;1.67;;
10275;SDS011;5183;51.190;6.820;2023-04-03T14:14:18;3.40;;;1.87;;
10275;SDS011;5183;51.190;6.820;2023-04-03T14:16:48;4.53;;;2.27;;
10275;SDS011;5183;51.190;6.820;2023-04-03T14:19:20;2.70;;;1.80;;
10275;SDS011;5183;51.190;6.820;2023-04-03T14:21:48;2.83;;;1.53;;
10275;SDS011;5183;51.190;6.820;2023-04-03T14:24:18;6.80;;;4.13;;
10275;SDS011;5183;51.190;6.820;2023-04-03T14:26:47;3.00;;;1.60;;
10275;SDS011;5183;51.190;6.820;2023-04-03T14:29:14;2.43;;;1.60;;
10275;SDS011;5183;51.190;6.820;2023-04-03T14:31:43;3.30;;;1.83;;
10275;SDS011;5183;51.190;6.820;2023-04-03T14:34:11;2.80;;;1.80;;
10275;SDS011;5183;51.190;6.820;2023-04-03T14:36:38;3.17;;;1.90;;
10275;SDS011;5183;51.190;6.820;2023-04-03T14:39:07;4.73;;;2.50;;
10275;SDS011;5183;51.190;6.820;2023-04-03T14:41:38;4.70;;;2.10;;
10275;SDS011;5183;51.190;6.820;2023-04-03T14:44:05;3.13;;;2.20;;
10275;SDS011;5183;51.190;6.820;2023-04-03T14:46:32;4.77;;;2.70;;
10275;SDS011;5183;51.190;6.820;2023-04-03T14:49:01;2.83;;;1.90;;
10275;SDS011;5183;51.190;6.820;2023-04-03T14:51:32;3.17;;;1.80;;
10275;SDS011;5183;51.190;6.820;2023-04-03T14:54:00;2.10;;;1.83;;
10275;SDS011;5183;51.190;6.820;2023-04-03T14:56:28;2.47;;;1.80;;
10275;SDS011;5183;51.190;6.820;2023-04-03T14:58:57;4.07;;;1.90;;
10275;SDS011;5183;51.190;6.820;2023-04-03T15:01:25;2.00;;;1.40;;
10275;SDS011;5183;51.190;6.820;2023-04-03T15:03:53;5.60;;;1.73;;
10275;SDS011;5183;51.190;6.820;2023-04-03T15:06:22;2.97;;;1.80;;
10275;SDS011;5183;51.190;6.820;2023-04-03T15:08:50;2.90;;;1.87;;
10275;SDS011;5183;51.190;6.820;2023-04-03T15:11:17;2.70;;;1.67;;
10275;SDS011;5183;51.190;6.820;2023-04-03T15:13:45;4.43;;;2.03;;
10275;SDS011;5183;51.190;6.820;2023-04-03T15:16:15;3.67;;;2.70;;
10275;SDS011;5183;51.190;6.820;2023-04-03T15:18:44;3.00;;;1.90;;
10275;SDS011;5183;51.190;6.820;2023-04-03T15:21:12;3.43;;;1.90;;
10275;SDS011;5183;51.190;6.820;2023-04-03T15:23:40;3.33;;;2.00;;
10275;SDS011;5183;51.190;6.820;2023-04-03T15:26:07;4.72;;;2.20;;
10275;SDS011;5183;51.190;6.820;2023-04-03T15:28:37;3.97;;;1.90;;
10275;SDS011;5183;51.190;6.820;2023-04-03T15:31:05;3.53;;;1.80;;